Time;durP1;ratioP1;P1;durP2;ratioP2;P2;SDS_P1;SDS_P2;PMS_P1;PMS_P2;Temp;Humidity;BMP_temperature;BMP_pressure;BME280_temperature;BME280_humidity;BME280_pressure;Samples;Min_cycle;Max_cycle;Signal;HPM_P1;HPM_P2
2023/09/01 00:01:05;;;;;;;2.87;2.00;;;;;;;16.17;100.00;97905.47;5073321;28;20224;-76
2023/09/01 00:03:32;;;;;;;4.33;2.10;;;;;;;16.12;100.00;97908.13;5073681;28;20208;-76
2023/09/01 00:06:02;;;;;;;3.40;2.33;;;;;;;16.11;100.00;97894.97;5073768;28;20205;-76
2023/09/01 00:08:28;;;;;;;3.07;1.90;;;;;;;16.08;100.00;97901.66;5073664;28;20193;-76
2023/09/01 00:10:55;;;;;;;3.27;1.90;;;;;;;16.22;100.00;97902.00;5073641;28;20292;-76
2023/09/01 00:13:21;;;;;;;5.57;1.90;;;;;;;16.16;100.00;97893.16;5073511;28;20204;-76
2023/09/01 00:15:47;;;;;;;5.70;1.97;;;;;;;16.12;100.00;97901.94;5073578;28;20201;-76
2023/09/01 00:18:14;;;;;;;3.23;2.00;;;;;;;16.14;100.00;97897.94;5073564;28;20201;-76
2023/09/01 00:20:40;;;;;;;4.70;1.93;;;;;;;16.09;100.00;97905.97;5073062;28;20224;-77
2023/09/01 00:23:06;;;;;;;4.27;1.80;;;;;;;16.12;100.00;97908.13;5073245;28;20571;-76
2023/09/01 00:25:33;;;;;;;5.03;1.87;;;;;;;16.15;100.00;97898.75;5073184;28;20690;-76
2023/09/01 00:27:59;;;;;;;2.97;2.10;;;;;;;16.20;100.00;97891.53;5073488;28;20204;-76
2023/09/01 00:30:29;;;;;;;3.67;1.57;;;;;;;16.20;100.00;97890.75;5073178;28;20228;-76
2023/09/01 00:32:55;;;;;;;4.10;1.90;;;;;;;16.31;100.00;97893.25;5073521;28;20204;-76
2023/09/01 00:35:21;;;;;;;3.60;1.70;;;;;;;16.30;100.00;97894.31;5073430;28;20208;-77
2023/09/01 00:37:50;;;;;;;3.87;2.10;;;;;;;16.29;100.00;97892.66;5073173;28;20238;-76
2023/09/01 00:40:16;;;;;;;2.73;1.90;;;;;;;16.29;100.00;97894.56;5074218;28;20224;-76
2023/09/01 00:42:42;;;;;;;2.33;2.00;;;;;;;16.30;100.00;97888.94;5072913;28;20695;-76
2023/09/01 00:45:09;;;;;;;4.93;2.03;;;;;;;16.39;100.00;97892.75;5073519;28;20568;-76
2023/09/01 00:47:36;;;;;;;4.70;2.00;;;;;;;16.30;100.00;97890.81;5073035;28;20671;-76
2023/09/01 00:50:07;;;;;;;2.20;1.60;;;;;;;16.35;100.00;97888.16;5073338;28;20235;-76
2023/09/01 00:52:34;;;;;;;3.57;1.80;;;;;;;16.30;100.00;97886.25;5073304;28;20203;-76
2023/09/01 00:55:00;;;;;;;3.10;1.87;;;;;;;16.33;100.00;97885.72;5072934;28;20204;-76
2023/09/01 00:57:27;;;;;;;1.80;1.70;;;;;;;16.27;100.00;97892.13;5073297;28;20216;-76
2023/09/01 00:59:53;;;;;;;2.33;1.90;;;;;;;16.28;100.00;97890.28;5072920;28;20225;-76
2023/09/01 01:02:20;;;;;;;2.67;1.77;;;;;;;16.28;100.00;97891.06;5073032;28;20703;-76
2023/09/01 01:04:46;;;;;;;2.37;1.70;;;;;;;16.32;100.00;97884.13;5073211;28;20567;-76
2023/09/01 01:07:19;;;;;;;2.87;1.90;;;;;;;16.30;100.00;97885.44;5073221;28;20661;-76
2023/09/01 01:09:48;;;;;;;3.20;1.90;;;;;;;16.32;100.00;97883.28;5072006;28;20228;-76
2023/09/01 01:12:26;;;;;;;2.83;1.87;;;;;;;16.34;100.00;97881.19;5076427;28;20197;-77
2023/09/01 01:14:54;;;;;;;3.67;1.60;;;;;;;16.37;100.00;97884.13;5075346;28;20195;-74
2023/09/01 01:17:21;;;;;;;2.23;1.70;;;;;;;16.48;100.00;97879.69;5076989;28;20212;-74
2023/09/01 01:20:13;;;;;;;3.40;2.00;;;;;;;16.29;100.00;97876.56;5076647;28;20711;-74
2023/09/01 01:22:42;;;;;;;4.30;1.80;;;;;;;16.36;100.00;97871.81;5076880;28;20217;-74
2023/09/01 01:25:11;;;;;;;2.67;2.10;;;;;;;16.46;100.00;97879.16;5076668;28;20210;-77
2023/09/01 01:27:41;;;;;;;2.60;1.70;;;;;;;16.32;100.00;97886.78;5076511;28;20200;-77
2023/09/01 01:30:13;;;;;;;4.07;1.97;;;;;;;16.36;100.00;97879.84;5076448;28;20601;-77
2023/09/01 01:32:40;;;;;;;4.10;2.07;;;;;;;16.29;100.00;97887.31;5076581;28;20193;-75
2023/09/01 01:35:24;;;;;;;2.37;1.90;;;;;;;16.25;100.00;97878.19;5076480;28;20206;-75
2023/09/01 01:38:05;;;;;;;4.43;1.97;;;;;;;16.10;100.00;97885.31;5076489;28;20188;-77
2023/09/01 01:40:32;;;;;;;4.00;2.00;;;;;;;16.22;100.00;97884.06;5076282;28;20234;-77
2023/09/01 01:43:03;;;;;;;3.97;2.00;;;;;;;16.23;100.00;97887.53;5076180;28;20224;-77
2023/09/01 01:45:31;;;;;;;3.50;2.23;;;;;;;16.25;100.00;97880.88;5075982;28;20536;-75
2023/09/01 01:47:58;;;;;;;2.97;1.70;;;;;;;16.31;100.00;97879.00;5076188;28;20200;-75
2023/09/01 01:50:24;;;;;;;3.23;1.73;;;;;;;16.27;100.00;97869.84;5076007;28;20226;-75
2023/09/01 01:52:51;;;;;;;3.53;1.83;;;;;;;16.24;100.00;97863.13;5076055;28;20201;-75
2023/09/01 01:55:17;;;;;;;3.73;1.87;;;;;;;16.25;100.00;97870.13;5075808;28;20208;-75
2023/09/01 01:57:44;;;;;;;2.53;1.53;;;;;;;16.26;100.00;97869.06;5075733;28;20208;-75
2023/09/01 02:00:14;;;;;;;2.50;1.87;;;;;;;16.32;100.00;97873.38;5075913;28;20220;-75
2023/09/01 02:02:43;;;;;;;2.97;2.00;;;;;;;16.33;100.00;97856.22;5075889;28;20212;-75
2023/09/01 02:05:10;;;;;;;2.67;1.70;;;;;;;16.41;100.00;97868.34;5075930;28;20224;-75
2023/09/01 02:07:37;;;;;;;3.90;1.90;;;;;;;16.47;100.00;97862.75;5075581;28;20214;-75
2023/09/01 02:10:05;;;;;;;2.60;1.90;;;;;;;16.46;100.00;97869.19;5076130;28;20229;-75
2023/09/01 02:12:33;;;;;;;4.53;2.10;;;;;;;16.49;100.00;97865.19;5076867;28;20244;-75
2023/09/01 02:15:00;;;;;;;2.87;1.50;;;;;;;16.39;100.00;97873.97;5076458;28;20211;-75
2023/09/01 02:17:26;;;;;;;2.63;1.70;;;;;;;16.47;100.00;97883.44;5077962;28;20663;-75
2023/09/01 02:19:52;;;;;;;3.70;1.67;;;;;;;16.56;100.00;97873.81;5077591;28;20225;-75
2023/09/01 02:22:19;;;;;;;4.33;2.00;;;;;;;16.59;100.00;97875.97;5075106;28;20711;-75
2023/09/01 02:24:45;;;;;;;2.60;1.60;;;;;;;16.58;100.00;97874.34;5076062;28;20215;-75
2023/09/01 02:27:11;;;;;;;2.67;1.83;;;;;;;16.65;100.00;97874.94;5077139;28;20205;-75
2023/09/01 02:29:38;;;;;;;2.03;1.77;;;;;;;16.66;100.00;97871.19;5076441;28;20236;-75
2023/09/01 02:32:04;;;;;;;3.40;1.80;;;;;;;16.75;100.00;97870.44;5076274;28;20197;-75
2023/09/01 02:34:31;;;;;;;3.43;1.90;;;;;;;16.68;100.00;97880.59;5075874;28;20215;-75
2023/09/01 02:36:58;;;;;;;2.93;1.80;;;;;;;16.64;100.00;97871.44;5076626;28;20204;-75
2023/09/01 02:39:24;;;;;;;4.83;1.80;;;;;;;16.66;100.00;97877.38;5075883;28;20233;-75
2023/09/01 02:41:50;;;;;;;2.83;1.77;;;;;;;16.67;100.00;97873.59;5075698;28;20234;-75
2023/09/01 02:44:17;;;;;;;2.13;1.63;;;;;;;16.74;100.00;97871.47;5075346;28;20200;-75
2023/09/01 02:46:43;;;;;;;3.77;1.83;;;;;;;16.77;100.00;97872.81;5075680;28;20212;-75
2023/09/01 02:49:10;;;;;;;3.60;1.67;;;;;;;16.74;100.00;97873.38;5075510;28;20228;-75
2023/09/01 02:51:36;;;;;;;2.67;1.70;;;;;;;16.68;100.00;97872.53;5075361;28;20207;-75
2023/09/01 02:54:04;;;;;;;2.87;1.77;;;;;;;16.71;100.00;97873.88;5075170;28;20209;-75
2023/09/01 02:56:31;;;;;;;6.03;1.77;;;;;;;16.64;100.00;97879.47;5075169;28;20205;-75
2023/09/01 02:58:57;;;;;;;2.20;1.40;;;;;;;16.76;100.00;97879.28;5075238;28;20232;-75
2023/09/01 03:01:23;;;;;;;1.87;1.60;;;;;;;16.86;100.00;97874.75;5074856;28;20675;-74
2023/09/01 03:03:50;;;;;;;4.07;1.63;;;;;;;16.94;100.00;97878.81;5075281;28;20205;-75
2023/09/01 03:06:16;;;;;;;3.40;1.63;;;;;;;16.84;100.00;97889.50;5075140;28;20205;-75
2023/09/01 03:08:43;;;;;;;3.83;1.70;;;;;;;16.90;100.00;97877.72;5074983;28;20690;-76
2023/09/01 03:11:10;;;;;;;2.07;1.60;;;;;;;16.89;100.00;97887.66;5075093;28;20211;-76
2023/09/01 03:13:36;;;;;;;3.53;1.50;;;;;;;16.93;100.00;97880.69;5075362;28;20213;-76
2023/09/01 03:16:04;;;;;;;2.53;1.40;;;;;;;17.04;100.00;97878.84;5074936;28;20200;-75
2023/09/01 03:18:30;;;;;;;2.57;1.60;;;;;;;17.00;100.00;97881.25;5074949;28;20607;-76
2023/09/01 03:20:57;;;;;;;2.83;1.40;;;;;;;17.03;100.00;97888.78;5075042;28;20204;-76
2023/09/01 03:23:24;;;;;;;2.67;1.57;;;;;;;16.96;100.00;97893.59;5074768;28;20618;-76
2023/09/01 03:25:57;;;;;;;2.30;1.60;;;;;;;16.90;100.00;97888.44;5074680;28;20204;-76
2023/09/01 03:28:24;;;;;;;3.07;1.53;;;;;;;16.92;100.00;97881.75;5074796;28;20246;-76
2023/09/01 03:30:50;;;;;;;1.47;1.20;;;;;;;16.90;100.00;97889.28;5074654;28;20195;-75
2023/09/01 03:33:17;;;;;;;3.33;1.60;;;;;;;16.93;100.00;97877.19;5074383;28;20280;-76
2023/09/01 03:35:44;;;;;;;2.83;1.57;;;;;;;16.92;100.00;97880.97;5074109;28;20215;-76
2023/09/01 03:38:10;;;;;;;1.40;1.20;;;;;;;16.89;100.00;97887.66;5074304;28;20200;-76
2023/09/01 03:40:37;;;;;;;1.80;1.57;;;;;;;16.88;100.00;97891.41;5073886;28;20733;-76
2023/09/01 03:43:03;;;;;;;3.30;1.53;;;;;;;16.85;100.00;97894.63;5074067;28;20232;-76
2023/09/01 03:45:30;;;;;;;2.77;1.50;;;;;;;16.77;100.00;97887.06;5074327;28;20204;-76
2023/09/01 03:47:56;;;;;;;2.50;1.30;;;;;;;16.77;100.00;97889.75;5080113;28;20206;-76
2023/09/01 03:50:22;;;;;;;4.10;1.67;;;;;;;16.84;100.00;97892.19;5094563;28;20235;-76
2023/09/01 03:52:49;;;;;;;1.60;1.50;;;;;;;16.86;100.00;97890.03;5094575;28;20206;-76
2023/09/01 03:55:15;;;;;;;2.73;1.47;;;;;;;16.76;100.00;97896.19;5094737;28;20226;-76
2023/09/01 03:57:43;;;;;;;2.53;1.47;;;;;;;16.86;100.00;97888.19;5094216;28;20294;-75
2023/09/01 04:00:11;;;;;;;2.17;1.40;;;;;;;16.83;100.00;97877.94;5093366;28;20232;-75
2023/09/01 04:02:38;;;;;;;2.70;1.60;;;;;;;16.85;100.00;97883.88;5091684;28;20581;-76
2023/09/01 04:05:05;;;;;;;2.23;1.40;;;;;;;16.75;100.00;97891.09;5089505;28;20207;-76
2023/09/01 04:07:31;;;;;;;3.27;1.37;;;;;;;16.83;100.00;97893.28;5079092;28;20253;-76
2023/09/01 04:09:58;;;;;;;3.30;1.53;;;;;;;16.82;100.00;97889.78;5083212;28;20241;-76
2023/09/01 04:12:25;;;;;;;4.13;1.63;;;;;;;16.85;100.00;97897.31;5082397;28;20639;-76
2023/09/01 04:14:51;;;;;;;2.77;1.80;;;;;;;16.84;100.00;97889.50;5093807;28;20204;-76
2023/09/01 04:17:18;;;;;;;4.50;1.40;;;;;;;16.79;100.00;97895.66;5093613;28;20230;-76
2023/09/01 04:19:48;;;;;;;2.27;1.60;;;;;;;16.68;100.00;97891.31;5093637;28;20231;-76
2023/09/01 04:22:14;;;;;;;4.03;1.70;;;;;;;16.69;100.00;97892.13;5085549;28;20224;-77
2023/09/01 04:24:40;;;;;;;3.13;1.63;;;;;;;16.72;100.00;97894.28;5073654;28;20211;-76
2023/09/01 04:27:07;;;;;;;3.20;1.47;;;;;;;16.69;100.00;97890.25;5095093;28;20290;-77
2023/09/01 04:29:33;;;;;;;2.23;1.50;;;;;;;16.73;100.00;97898.59;5100326;28;20679;-77
2023/09/01 04:32:00;;;;;;;3.30;1.40;;;;;;;16.63;100.00;97895.84;5098785;28;20593;-77
2023/09/01 04:34:26;;;;;;;2.10;1.33;;;;;;;16.53;100.00;97898.47;5093438;28;20211;-76
2023/09/01 04:36:52;;;;;;;1.70;1.43;;;;;;;16.56;100.00;97882.66;5093268;28;20207;-77
2023/09/01 04:39:19;;;;;;;1.60;1.50;;;;;;;16.57;100.00;97886.97;5092735;28;20337;-77
2023/09/01 04:41:45;;;;;;;3.10;1.53;;;;;;;16.57;100.00;97888.84;5083846;28;20288;-77
2023/09/01 04:44:13;;;;;;;3.97;1.63;;;;;;;16.54;100.00;97892.88;5093241;28;20286;-76
2023/09/01 04:46:40;;;;;;;3.07;1.90;;;;;;;16.55;100.00;97897.16;5089517;28;20196;-76
2023/09/01 04:49:06;;;;;;;1.50;1.40;;;;;;;16.59;100.00;97900.13;5085658;28;20231;-79
2023/09/01 04:51:39;;;;;;;4.00;1.30;;;;;;;16.57;100.00;97888.84;5077460;28;20201;-76
2023/09/01 04:54:06;;;;;;;2.03;1.43;;;;;;;16.64;100.00;97897.47;5095811;28;20192;-76
2023/09/01 04:56:33;;;;;;;1.93;1.60;;;;;;;16.68;100.00;97899.38;5094831;28;20203;-76
2023/09/01 04:58:59;;;;;;;2.17;1.57;;;;;;;16.71;100.00;97904.22;5095302;28;20216;-76
2023/09/01 05:01:26;;;;;;;3.50;1.53;;;;;;;16.74;100.00;97902.91;5096314;28;20208;-76
2023/09/01 05:03:52;;;;;;;2.73;1.50;;;;;;;16.82;100.00;97913.94;5097140;28;20589;-77
2023/09/01 05:06:18;;;;;;;1.80;1.60;;;;;;;16.74;100.00;97910.94;5096822;28;20210;-76
2023/09/01 05:08:45;;;;;;;3.83;1.63;;;;;;;16.87;100.00;97905.09;5096936;28;20250;-76
2023/09/01 05:11:11;;;;;;;2.40;1.50;;;;;;;16.97;100.00;97914.00;5096949;28;20577;-76
2023/09/01 05:13:37;;;;;;;2.07;1.50;;;;;;;17.00;100.00;97918.84;5096524;28;20547;-76
2023/09/01 05:16:07;;;;;;;1.50;1.40;;;;;;;16.93;100.00;97914.78;5096848;28;20204;-77
2023/09/01 05:18:33;;;;;;;2.43;1.40;;;;;;;16.93;100.00;97915.63;5096416;28;20257;-77
2023/09/01 05:20:59;;;;;;;2.60;1.47;;;;;;;17.02;100.00;97924.78;5096425;28;20204;-76
2023/09/01 05:23:31;;;;;;;2.73;1.47;;;;;;;17.08;100.00;97917.53;5096467;28;20258;-76
2023/09/01 05:25:57;;;;;;;2.67;1.57;;;;;;;17.06;100.00;97920.47;5096390;28;20635;-76
2023/09/01 05:28:23;;;;;;;2.63;1.60;;;;;;;16.94;100.00;97917.22;5096159;28;20594;-76
2023/09/01 05:30:50;;;;;;;3.50;1.50;;;;;;;17.03;100.00;97918.31;5096548;28;20194;-76
2023/09/01 05:33:16;;;;;;;2.70;1.43;;;;;;;17.05;100.00;97915.38;5096273;28;20204;-76
2023/09/01 05:35:43;;;;;;;2.53;1.57;;;;;;;17.02;100.00;97918.59;5096349;28;20204;-76
2023/09/01 05:38:10;;;;;;;2.77;1.60;;;;;;;17.02;100.00;97922.09;5096310;28;20753;-76
2023/09/01 05:40:36;;;;;;;2.50;1.80;;;;;;;16.91;100.00;97922.28;5096387;28;20235;-77
2023/09/01 05:43:03;;;;;;;3.70;1.83;;;;;;;16.90;100.00;97918.00;5096474;28;20328;-76
2023/09/01 05:45:29;;;;;;;2.13;1.50;;;;;;;16.77;100.00;97916.59;5096414;28;20291;-76
2023/09/01 05:47:56;;;;;;;3.60;1.63;;;;;;;16.68;100.00;97931.59;5096348;28;20203;-76
2023/09/01 05:50:22;;;;;;;5.23;2.20;;;;;;;16.62;100.00;97935.31;5095805;28;20266;-76
2023/09/01 05:52:49;;;;;;;3.93;2.00;;;;;;;16.48;100.00;97936.84;5095782;28;20200;-76
2023/09/01 05:55:16;;;;;;;5.83;2.30;;;;;;;16.57;100.00;97932.63;5095753;28;20678;-75
2023/09/01 05:57:42;;;;;;;6.13;2.17;;;;;;;16.44;100.00;97930.38;5095701;28;20211;-75
2023/09/01 06:00:09;;;;;;;3.30;2.10;;;;;;;16.46;100.00;97933.59;5095768;28;20224;-75
2023/09/01 06:02:36;;;;;;;3.40;1.97;;;;;;;16.49;100.00;97935.78;5095676;28;20306;-75
2023/09/01 06:05:03;;;;;;;3.07;1.90;;;;;;;16.46;100.00;97947.03;5095885;28;20204;-75
2023/09/01 06:07:29;;;;;;;2.97;1.83;;;;;;;16.45;100.00;97950.78;5095857;28;20199;-75
2023/09/01 06:09:56;;;;;;;6.07;1.83;;;;;;;16.41;100.00;97956.91;5095846;28;20219;-75
2023/09/01 06:12:22;;;;;;;2.67;1.67;;;;;;;16.50;100.00;97964.22;5095834;28;20287;-76
2023/09/01 06:14:48;;;;;;;4.60;1.70;;;;;;;16.41;100.00;97962.25;5095755;28;20200;-75
2023/09/01 06:17:15;;;;;;;4.30;2.20;;;;;;;16.49;100.00;97967.97;5095780;28;20215;-75
2023/09/01 06:19:41;;;;;;;3.73;1.90;;;;;;;16.49;100.00;97967.97;5095541;28;20220;-75
2023/09/01 06:22:07;;;;;;;3.50;1.80;;;;;;;16.44;100.00;97973.31;5095476;28;20210;-75
2023/09/01 06:24:34;;;;;;;4.83;1.90;;;;;;;16.45;100.00;97974.94;5095507;28;20297;-75
2023/09/01 06:27:00;;;;;;;5.57;1.97;;;;;;;16.44;100.00;97969.81;5095393;28;20203;-75
2023/09/01 06:29:27;;;;;;;2.90;2.60;;;;;;;16.51;100.00;97981.16;5095202;28;20242;-75
2023/09/01 06:31:53;;;;;;;4.47;2.00;;;;;;;16.47;100.00;97983.50;5095267;28;20200;-75
2023/09/01 06:34:20;;;;;;;3.63;1.80;;;;;;;16.50;100.00;97991.06;5095042;28;20196;-75
2023/09/01 06:36:47;;;;;;;2.67;1.83;;;;;;;16.45;100.00;97985.66;5095086;28;20543;-75
2023/09/01 06:39:13;;;;;;;1.70;1.60;;;;;;;16.43;100.00;97986.97;5094752;28;20305;-75
2023/09/01 06:41:40;;;;;;;2.00;1.80;;;;;;;16.46;100.00;97984.59;5095202;28;20207;-75
2023/09/01 06:44:06;;;;;;;4.03;1.70;;;;;;;16.51;100.00;97992.66;5094693;28;20246;-75
2023/09/01 06:46:32;;;;;;;2.60;1.70;;;;;;;16.52;100.00;97977.38;5094601;28;20200;-75
2023/09/01 06:48:59;;;;;;;5.00;1.80;;;;;;;16.55;100.00;97977.66;5088996;28;20221;-75
2023/09/01 06:51:25;;;;;;;2.47;2.10;;;;;;;16.63;100.00;97974.50;5087008;28;20210;-75
2023/09/01 06:53:51;;;;;;;4.80;1.83;;;;;;;16.79;100.00;97995.00;5094696;28;20234;-75
2023/09/01 06:56:18;;;;;;;2.80;1.87;;;;;;;16.77;100.00;97999.00;5094728;28;20219;-74
2023/09/01 06:58:44;;;;;;;3.57;2.47;;;;;;;16.80;100.00;97996.63;5094653;28;20223;-75
2023/09/01 07:01:11;;;;;;;2.17;1.70;;;;;;;16.99;100.00;97984.38;5094814;28;20204;-75
2023/09/01 07:03:38;;;;;;;2.70;1.80;;;;;;;16.85;100.00;97990.47;5095003;28;20223;-75
2023/09/01 07:06:04;;;;;;;4.00;2.00;;;;;;;16.80;100.00;98001.19;5094816;28;20204;-75
2023/09/01 07:08:31;;;;;;;2.63;2.17;;;;;;;16.93;100.00;98001.53;5093646;28;20200;-75
2023/09/01 07:11:05;;;;;;;3.37;2.00;;;;;;;16.88;100.00;98001.50;5094720;28;20203;-75
2023/09/01 07:13:31;;;;;;;2.47;2.00;;;;;;;16.92;100.00;98007.97;5094382;28;20180;-75
2023/09/01 07:15:58;;;;;;;3.60;2.23;;;;;;;16.91;100.00;97997.47;5094591;28;20211;-75
2023/09/01 07:18:25;;;;;;;3.30;2.13;;;;;;;16.90;100.00;98014.66;5094123;28;20203;-75
2023/09/01 07:20:52;;;;;;;2.60;2.17;;;;;;;16.90;100.00;98004.75;5094218;28;20720;-75
2023/09/01 07:23:19;;;;;;;3.57;2.30;;;;;;;16.85;100.00;98004.72;5094308;28;20230;-75
2023/09/01 07:25:45;;;;;;;5.00;2.50;;;;;;;16.80;100.00;97999.31;5094319;28;20257;-74
2023/09/01 07:28:15;;;;;;;5.20;2.60;;;;;;;16.88;100.00;98001.50;5094299;28;20218;-74
2023/09/01 07:30:41;;;;;;;5.07;2.17;;;;;;;16.85;100.00;97993.97;5094210;28;20230;-74
2023/09/01 07:33:08;;;;;;;1.70;1.60;;;;;;;16.79;100.00;97988.84;5074604;28;20197;-74
2023/09/01 07:35:34;;;;;;;3.17;1.93;;;;;;;16.94;100.00;97989.72;5074125;28;20204;-74
2023/09/01 07:38:02;;;;;;;2.40;2.20;;;;;;;17.00;100.00;97983.31;5073698;28;20205;-74
2023/09/01 07:40:29;;;;;;;3.33;2.20;;;;;;;17.02;100.00;97988.41;5073573;28;20651;-74
2023/09/01 07:42:55;;;;;;;4.30;2.27;;;;;;;17.02;100.00;97981.19;5073862;28;20266;-76
2023/09/01 07:45:22;;;;;;;3.23;2.50;;;;;;;17.23;100.00;97987.44;5081323;28;20203;-75
2023/09/01 07:47:48;;;;;;;4.50;3.03;;;;;;;17.27;100.00;97992.03;5082143;28;20686;-75
2023/09/01 07:50:15;;;;;;;6.70;2.70;;;;;;;17.39;100.00;98000.72;5083963;28;20218;-75
2023/09/01 07:52:41;;;;;;;3.80;2.40;;;;;;;17.57;100.00;97997.53;5083509;28;20566;-75
2023/09/01 07:55:07;;;;;;;7.03;2.70;;;;;;;17.56;100.00;97997.81;5082468;28;20564;-75
2023/09/01 07:57:34;;;;;;;4.90;2.80;;;;;;;17.70;100.00;97998.91;5084004;28;20200;-75
2023/09/01 08:00:00;;;;;;;3.37;2.67;;;;;;;17.77;100.00;97994.91;5089237;28;20219;-75
2023/09/01 08:02:28;;;;;;;2.63;1.80;;;;;;;17.65;100.00;97999.69;5093854;28;20208;-75
2023/09/01 08:04:54;;;;;;;3.73;1.90;;;;;;;17.78;100.00;98006.47;5094096;28;20204;-75
2023/09/01 08:07:21;;;;;;;2.27;1.60;;;;;;;17.87;100.00;98011.03;5093600;28;20206;-76
2023/09/01 08:09:47;;;;;;;2.07;1.70;;;;;;;17.97;100.00;98007.56;5093643;28;20224;-76
2023/09/01 08:12:13;;;;;;;5.07;1.83;;;;;;;17.92;100.00;98010.25;5093746;28;20199;-76
2023/09/01 08:14:40;;;;;;;2.17;1.80;;;;;;;17.93;100.00;98018.06;5093582;28;20196;-76
2023/09/01 08:17:06;;;;;;;2.20;1.50;;;;;;;17.95;100.00;98007.84;5093482;28;20207;-76
2023/09/01 08:19:33;;;;;;;1.90;1.70;;;;;;;18.08;100.00;98017.25;5093581;28;20592;-77
2023/09/01 08:21:59;;;;;;;2.37;1.43;;;;;;;17.92;100.00;98021.81;5093382;28;20547;-76
2023/09/01 08:24:25;;;;;;;3.20;1.60;;;;;;;17.95;100.00;98021.28;5093593;28;20220;-76
2023/09/01 08:26:52;;;;;;;1.77;1.37;;;;;;;18.04;100.00;98024.25;5093487;28;20294;-76
2023/09/01 08:29:18;;;;;;;1.90;1.63;;;;;;;18.05;100.00;98018.59;5093195;28;20231;-76
2023/09/01 08:31:44;;;;;;;3.67;1.90;;;;;;;18.32;100.00;98021.06;5093466;28;20294;-77
2023/09/01 08:34:11;;;;;;;2.20;1.53;;;;;;;18.47;100.00;98023.78;5093556;28;20210;-77
2023/09/01 08:36:38;;;;;;;2.77;1.70;;;;;;;18.74;100.00;98030.47;5093747;28;20215;-77
2023/09/01 08:39:05;;;;;;;1.87;1.70;;;;;;;18.73;100.00;98023.47;5093449;28;20224;-77
2023/09/01 08:41:33;;;;;;;2.40;1.63;;;;;;;18.85;100.00;98040.19;5093100;28;20543;-77
2023/09/01 08:44:06;;;;;;;4.77;1.60;;;;;;;18.81;100.00;98031.03;5093263;28;20220;-76
2023/09/01 08:46:33;;;;;;;1.90;1.20;;;;;;;18.85;100.00;98029.41;5093294;28;20196;-76
2023/09/01 08:49:02;;;;;;;5.13;1.93;;;;;;;18.83;100.00;98028.06;5093260;28;20224;-76
2023/09/01 08:51:29;;;;;;;1.87;1.77;;;;;;;19.06;100.00;98030.16;5093336;28;20204;-76
2023/09/01 08:53:55;;;;;;;2.13;1.80;;;;;;;18.85;100.00;98032.09;5093168;28;20290;-76
2023/09/01 08:56:22;;;;;;;2.17;1.60;;;;;;;18.87;100.00;98035.31;5093073;28;20204;-76
2023/09/01 08:58:47;;;;;;;2.83;1.90;;;;;;;18.95;100.00;98031.28;5091447;28;20228;-76
2023/09/01 09:01:15;;;;;;;4.50;1.83;;;;;;;18.95;100.00;98032.06;5090714;28;20215;-76
2023/09/01 09:03:41;;;;;;;2.53;1.97;;;;;;;19.04;100.00;98035.00;5092529;28;20227;-76
2023/09/01 09:06:08;;;;;;;2.97;1.80;;;;;;;19.18;100.00;98036.84;5093038;28;20207;-76
2023/09/01 09:08:35;;;;;;;2.07;1.80;;;;;;;19.19;100.00;98033.06;5092795;28;20208;-76
2023/09/01 09:11:11;;;;;;;2.87;1.80;;;;;;;19.28;100.00;98036.06;5093115;28;20248;-77
2023/09/01 09:13:37;;;;;;;2.60;1.60;;;;;;;19.27;100.00;98023.69;5093650;28;20184;-77
2023/09/01 09:16:15;;;;;;;3.87;1.67;;;;;;;19.24;100.00;98022.34;5092732;28;20203;-77
2023/09/01 09:18:44;;;;;;;3.13;1.60;;;;;;;19.36;100.00;98019.34;5092539;28;20593;-76
2023/09/01 09:21:29;;;;;;;3.37;1.80;;;;;;;19.59;100.00;98016.78;5092839;28;20574;-77
2023/09/01 09:23:58;;;;;;;1.70;1.50;;;;;;;19.63;100.00;98018.94;5092992;28;20212;-77
2023/09/01 09:26:33;;;;;;;3.67;1.67;;;;;;;19.78;100.00;98016.97;5092750;28;20199;-77
2023/09/01 09:29:08;;;;;;;1.10;1.00;;;;;;;19.62;100.00;98030.81;5092640;28;20280;-77
2023/09/01 09:31:39;;;;;;;1.80;0.70;;;;;;;19.71;100.00;98034.53;5093442;28;20707;-77
2023/09/01 09:34:23;;;;;;;0.80;0.80;;;;;;;19.77;100.00;98026.94;5096469;28;20697;-77
2023/09/01 09:36:50;;;;;;;1.17;0.80;;;;;;;19.82;100.00;98036.09;5096523;28;20199;-77
2023/09/01 09:39:25;;;;;;;1.13;0.90;;;;;;;19.77;100.00;98032.34;5096267;28;20224;-76
2023/09/01 09:41:51;;;;;;;1.23;1.07;;;;;;;19.85;100.00;98035.53;5096415;28;20209;-77
2023/09/01 09:44:26;;;;;;;1.07;0.70;;;;;;;19.77;100.00;98035.03;5096052;28;20255;-77
2023/09/01 09:46:55;;;;;;;1.33;0.90;;;;;;;19.82;100.00;98036.91;5095684;28;20663;-76
2023/09/01 09:49:23;;;;;;;1.33;0.80;;;;;;;19.63;100.00;98042.13;5096334;28;20309;-77
2023/09/01 09:51:51;;;;;;;1.17;0.90;;;;;;;19.55;100.00;98044.59;5096512;28;20657;-76
2023/09/01 09:54:21;;;;;;;1.70;1.03;;;;;;;19.58;100.00;98049.41;5096690;28;20215;-77
2023/09/01 09:56:52;;;;;;;0.83;0.80;;;;;;;19.65;100.00;98047.25;5095563;28;20203;-77
2023/09/01 09:59:28;;;;;;;1.10;0.90;;;;;;;19.57;100.00;98055.09;5095939;28;20234;-77
2023/09/01 10:01:58;;;;;;;1.43;1.00;;;;;;;19.53;100.00;98055.66;5096067;28;20220;-76
2023/09/01 10:04:25;;;;;;;2.10;1.07;;;;;;;19.47;100.00;98058.63;5095624;28;20230;-76
2023/09/01 10:06:52;;;;;;;2.03;1.20;;;;;;;19.45;100.00;98060.81;5094584;28;20577;-77
2023/09/01 10:09:19;;;;;;;3.53;1.50;;;;;;;19.29;100.00;98059.25;5096510;28;20228;-77
2023/09/01 10:11:46;;;;;;;1.53;1.20;;;;;;;19.28;100.00;98057.63;5095816;28;20208;-77
2023/09/01 10:14:13;;;;;;;1.60;1.50;;;;;;;19.21;100.00;98054.38;5095753;28;20203;-76
2023/09/01 10:16:41;;;;;;;1.87;1.20;;;;;;;19.24;100.00;98054.69;5095963;28;20212;-76
2023/09/01 10:19:11;;;;;;;1.73;1.40;;;;;;;19.20;100.00;98056.28;5096378;28;20274;-76
2023/09/01 10:21:40;;;;;;;1.97;1.33;;;;;;;19.24;100.00;98049.28;5096080;28;20253;-76
2023/09/01 10:24:13;;;;;;;2.10;1.33;;;;;;;19.23;100.00;98049.56;5095918;28;20220;-76
2023/09/01 10:26:40;;;;;;;2.53;1.47;;;;;;;19.29;100.00;98048.44;5096287;28;20581;-76
2023/09/01 10:29:06;;;;;;;1.80;1.50;;;;;;;19.35;100.00;98044.66;5095528;28;20231;-76
2023/09/01 10:31:35;;;;;;;1.93;1.10;;;;;;;19.41;100.00;98038.97;5095929;28;20215;-76
2023/09/01 10:34:13;;;;;;;1.47;1.30;;;;;;;19.42;100.00;98040.56;5094382;28;20200;-76
2023/09/01 10:36:44;;;;;;;2.13;1.00;;;;;;;19.54;100.00;98043.00;5096352;28;20195;-76
2023/09/01 10:39:21;;;;;;;2.10;1.30;;;;;;;19.47;100.00;98039.75;5095780;28;20224;-76
2023/09/01 10:42:02;;;;;;;1.57;1.10;;;;;;;19.62;100.00;98042.38;5094887;28;20219;-76
2023/09/01 10:44:42;;;;;;;1.50;1.40;;;;;;;19.72;100.00;98030.75;5093831;28;20220;-76
2023/09/01 10:47:33;;;;;;;1.70;1.27;;;;;;;19.73;100.00;98035.06;5095126;28;20207;-77
2023/09/01 10:50:04;;;;;;;1.60;1.30;;;;;;;19.85;100.00;98035.53;5095126;28;20294;-76
2023/09/01 10:52:31;;;;;;;1.43;1.33;;;;;;;19.99;100.00;98037.31;5095080;28;20212;-76
2023/09/01 10:55:00;;;;;;;2.10;1.30;;;;;;;20.21;100.00;98034.28;5095967;28;20272;-76
2023/09/01 10:57:41;;;;;;;2.47;1.50;;;;;;;20.42;100.00;98035.72;5094945;28;20203;-76
2023/09/01 11:00:34;;;;;;;3.17;1.60;;;;;;;20.26;100.00;98036.94;5094677;28;20305;-76
2023/09/01 11:03:29;;;;;;;2.50;1.50;;;;;;;20.35;100.00;98030.63;5094766;28;20192;-76
2023/09/01 11:06:03;;;;;;;3.07;1.50;;;;;;;20.33;100.00;98037.41;5094265;28;20207;-76
2023/09/01 11:08:31;;;;;;;3.23;1.50;;;;;;;20.46;100.00;98037.59;5094279;28;20595;-74
2023/09/01 11:11:08;;;;;;;3.63;1.50;;;;;;;20.30;100.00;98033.38;5094252;28;20254;-75
2023/09/01 11:13:35;;;;;;;2.05;1.88;;;;;;;20.41;100.00;98032.22;5094286;28;20417;-74
2023/09/01 11:16:11;;;;;;;1.73;1.40;;;;;;;20.47;100.00;98035.66;5094675;28;20204;-74
2023/09/01 11:18:38;;;;;;;1.67;1.30;;;;;;;20.56;100.00;98033.97;5094915;28;20286;-74
2023/09/01 11:21:09;;;;;;;1.40;1.30;;;;;;;20.49;100.00;98033.50;5094311;28;20677;-77
2023/09/01 11:23:35;;;;;;;2.77;1.60;;;;;;;20.63;100.00;98037.16;5094275;28;20593;-76
2023/09/01 11:26:03;;;;;;;1.90;1.50;;;;;;;20.83;100.00;98036.97;5094440;28;20216;-76
2023/09/01 11:28:30;;;;;;;1.93;1.47;;;;;;;20.88;100.00;98037.75;5094039;28;20208;-76